sensor_id;sensor_type;location;lat;lon;timestamp;P1;durP1;ratioP1;P2;durP2;ratioP2
51824;SDS011;37879;52.986;6.282;2023-12-29T00:00:08;6.38;;;1.70;;
51824;SDS011;37879;52.986;6.282;2023-12-29T00:02:34;7.57;;;1.80;;
51824;SDS011;37879;52.986;6.282;2023-12-29T00:05:00;4.45;;;2.17;;
51824;SDS011;37879;52.986;6.282;2023-12-29T00:07:26;9.93;;;2.25;;
51824;SDS011;37879;52.986;6.282;2023-12-29T00:09:52;6.05;;;2.15;;
51824;SDS011;37879;52.986;6.282;2023-12-29T00:12:17;5.45;;;2.38;;
51824;SDS011;37879;52.986;6.282;2023-12-29T00:14:43;8.40;;;1.80;;
51824;SDS011;37879;52.986;6.282;2023-12-29T00:17:09;6.78;;;1.92;;
51824;SDS011;37879;52.986;6.282;2023-12-29T00:19:35;10.93;;;2.08;;
51824;SDS011;37879;52.986;6.282;2023-12-29T00:22:01;5.53;;;1.63;;
51824;SDS011;37879;52.986;6.282;2023-12-29T00:24:28;5.35;;;1.70;;
51824;SDS011;37879;52.986;6.282;2023-12-29T00:26:56;8.57;;;2.63;;
51824;SDS011;37879;52.986;6.282;2023-12-29T00:29:23;5.20;;;1.10;;
51824;SDS011;37879;52.986;6.282;2023-12-29T00:31:49;5.60;;;1.27;;
51824;SDS011;37879;52.986;6.282;2023-12-29T00:34:15;8.25;;;1.58;;
51824;SDS011;37879;52.986;6.282;2023-12-29T00:36:41;4.47;;;1.50;;
51824;SDS011;37879;52.986;6.282;2023-12-29T00:39:07;9.55;;;1.23;;
51824;SDS011;37879;52.986;6.282;2023-12-29T00:41:32;8.82;;;1.48;;
51824;SDS011;37879;52.986;6.282;2023-12-29T00:43:58;5.85;;;2.33;;
51824;SDS011;37879;52.986;6.282;2023-12-29T00:46:24;7.22;;;1.75;;
51824;SDS011;37879;52.986;6.282;2023-12-29T00:48:50;5.60;;;1.48;;
51824;SDS011;37879;52.986;6.282;2023-12-29T00:51:16;7.78;;;1.90;;
51824;SDS011;37879;52.986;6.282;2023-12-29T00:53:41;7.03;;;1.70;;
51824;SDS011;37879;52.986;6.282;2023-12-29T00:56:10;7.03;;;1.83;;
51824;SDS011;37879;52.986;6.282;2023-12-29T00:58:37;4.88;;;1.40;;
51824;SDS011;37879;52.986;6.282;2023-12-29T01:01:03;7.25;;;1.95;;
51824;SDS011;37879;52.986;6.282;2023-12-29T01:03:30;9.88;;;2.40;;
51824;SDS011;37879;52.986;6.282;2023-12-29T01:05:55;7.35;;;2.20;;
51824;SDS011;37879;52.986;6.282;2023-12-29T01:08:21;6.38;;;1.80;;
51824;SDS011;37879;52.986;6.282;2023-12-29T01:10:47;9.10;;;2.28;;
51824;SDS011;37879;52.986;6.282;2023-12-29T01:13:13;6.95;;;1.40;;
51824;SDS011;37879;52.986;6.282;2023-12-29T01:15:38;6.00;;;1.60;;
51824;SDS011;37879;52.986;6.282;2023-12-29T01:18:05;4.72;;;1.65;;
51824;SDS011;37879;52.986;6.282;2023-12-29T01:20:31;11.82;;;2.72;;
51824;SDS011;37879;52.986;6.282;2023-12-29T01:22:57;6.05;;;2.03;;
51824;SDS011;37879;52.986;6.282;2023-12-29T01:25:22;9.82;;;2.65;;
51824;SDS011;37879;52.986;6.282;2023-12-29T01:27:49;11.35;;;2.40;;
51824;SDS011;37879;52.986;6.282;2023-12-29T01:30:15;8.32;;;2.40;;
51824;SDS011;37879;52.986;6.282;2023-12-29T01:32:40;8.45;;;2.63;;
51824;SDS011;37879;52.986;6.282;2023-12-29T01:35:06;11.27;;;3.05;;
51824;SDS011;37879;52.986;6.282;2023-12-29T01:37:32;12.68;;;3.55;;
51824;SDS011;37879;52.986;6.282;2023-12-29T01:39:58;8.10;;;2.30;;
51824;SDS011;37879;52.986;6.282;2023-12-29T01:42:24;7.85;;;2.42;;
51824;SDS011;37879;52.986;6.282;2023-12-29T01:44:50;7.43;;;1.85;;
51824;SDS011;37879;52.986;6.282;2023-12-29T01:47:19;8.48;;;2.25;;
51824;SDS011;37879;52.986;6.282;2023-12-29T01:49:46;9.43;;;3.00;;
51824;SDS011;37879;52.986;6.282;2023-12-29T01:52:14;8.00;;;2.03;;
51824;SDS011;37879;52.986;6.282;2023-12-29T01:54:42;8.43;;;2.30;;
51824;SDS011;37879;52.986;6.282;2023-12-29T01:57:09;7.80;;;1.90;;
51824;SDS011;37879;52.986;6.282;2023-12-29T01:59:36;9.50;;;2.92;;
51824;SDS011;37879;52.986;6.282;2023-12-29T02:02:03;8.13;;;1.98;;
51824;SDS011;37879;52.986;6.282;2023-12-29T02:04:29;12.02;;;2.10;;
51824;SDS011;37879;52.986;6.282;2023-12-29T02:06:56;6.07;;;1.70;;
51824;SDS011;37879;52.986;6.282;2023-12-29T02:09:22;4.05;;;0.90;;
51824;SDS011;37879;52.986;6.282;2023-12-29T02:11:48;2.50;;;0.80;;
51824;SDS011;37879;52.986;6.282;2023-12-29T02:14:14;3.92;;;0.85;;
51824;SDS011;37879;52.986;6.282;2023-12-29T02:19:42;5.28;;;2.08;;
51824;SDS011;37879;52.986;6.282;2023-12-29T02:22:10;5.15;;;1.20;;
51824;SDS011;37879;52.986;6.282;2023-12-29T02:24:36;5.65;;;1.15;;
51824;SDS011;37879;52.986;6.282;2023-12-29T02:27:18;3.00;;;0.88;;
51824;SDS011;37879;52.986;6.282;2023-12-29T02:30:38;11.77;;;2.42;;
51824;SDS011;37879;52.986;6.282;2023-12-29T02:33:10;8.63;;;2.03;;
51824;SDS011;37879;52.986;6.282;2023-12-29T02:35:41;11.80;;;2.38;;
51824;SDS011;37879;52.986;6.282;2023-12-29T02:38:09;9.63;;;2.97;;
51824;SDS011;37879;52.986;6.282;2023-12-29T02:40:36;8.93;;;2.25;;
51824;SDS011;37879;52.986;6.282;2023-12-29T02:43:02;7.95;;;2.47;;
51824;SDS011;37879;52.986;6.282;2023-12-29T02:45:28;13.18;;;2.95;;
51824;SDS011;37879;52.986;6.282;2023-12-29T02:47:54;9.10;;;1.65;;
51824;SDS011;37879;52.986;6.282;2023-12-29T02:50:19;5.22;;;1.88;;
51824;SDS011;37879;52.986;6.282;2023-12-29T02:52:45;6.05;;;1.88;;
51824;SDS011;37879;52.986;6.282;2023-12-29T02:55:11;6.88;;;1.75;;
51824;SDS011;37879;52.986;6.282;2023-12-29T02:57:37;7.15;;;2.10;;
51824;SDS011;37879;52.986;6.282;2023-12-29T03:00:04;7.85;;;2.00;;
51824;SDS011;37879;52.986;6.282;2023-12-29T03:02:31;9.52;;;2.75;;
51824;SDS011;37879;52.986;6.282;2023-12-29T03:04:57;8.05;;;2.00;;
51824;SDS011;37879;52.986;6.282;2023-12-29T03:07:23;8.18;;;2.22;;
51824;SDS011;37879;52.986;6.282;2023-12-29T03:09:49;11.75;;;2.33;;
51824;SDS011;37879;52.986;6.282;2023-12-29T03:12:15;7.40;;;2.03;;
51824;SDS011;37879;52.986;6.282;2023-12-29T03:14:41;6.55;;;2.03;;
51824;SDS011;37879;52.986;6.282;2023-12-29T03:17:06;7.97;;;2.45;;
51824;SDS011;37879;52.986;6.282;2023-12-29T03:19:32;7.70;;;1.95;;
51824;SDS011;37879;52.986;6.282;2023-12-29T03:21:58;9.63;;;2.00;;
51824;SDS011;37879;52.986;6.282;2023-12-29T03:24:24;9.55;;;2.25;;
51824;SDS011;37879;52.986;6.282;2023-12-29T03:26:49;10.40;;;2.30;;
51824;SDS011;37879;52.986;6.282;2023-12-29T03:29:15;9.95;;;2.58;;
51824;SDS011;37879;52.986;6.282;2023-12-29T03:31:41;15.18;;;2.55;;
51824;SDS011;37879;52.986;6.282;2023-12-29T03:34:06;9.57;;;2.42;;
51824;SDS011;37879;52.986;6.282;2023-12-29T03:36:32;13.85;;;2.50;;
51824;SDS011;37879;52.986;6.282;2023-12-29T03:38:58;7.72;;;1.83;;
51824;SDS011;37879;52.986;6.282;2023-12-29T03:41:24;13.15;;;2.70;;
51824;SDS011;37879;52.986;6.282;2023-12-29T03:43:49;17.65;;;4.40;;
51824;SDS011;37879;52.986;6.282;2023-12-29T03:46:19;13.57;;;3.85;;
51824;SDS011;37879;52.986;6.282;2023-12-29T03:48:45;13.63;;;3.83;;
51824;SDS011;37879;52.986;6.282;2023-12-29T03:51:11;10.75;;;2.47;;
51824;SDS011;37879;52.986;6.282;2023-12-29T03:53:37;13.25;;;3.10;;
51824;SDS011;37879;52.986;6.282;2023-12-29T03:56:06;15.98;;;3.45;;
51824;SDS011;37879;52.986;6.282;2023-12-29T03:58:33;13.75;;;3.47;;
51824;SDS011;37879;52.986;6.282;2023-12-29T04:01:00;10.45;;;2.53;;
51824;SDS011;37879;52.986;6.282;2023-12-29T04:03:26;14.95;;;3.03;;
51824;SDS011;37879;52.986;6.282;2023-12-29T04:05:51;14.38;;;3.67;;
51824;SDS011;37879;52.986;6.282;2023-12-29T04:08:17;9.73;;;3.03;;
51824;SDS011;37879;52.986;6.282;2023-12-29T04:10:43;10.60;;;2.80;;
51824;SDS011;37879;52.986;6.282;2023-12-29T04:13:08;10.75;;;3.20;;
51824;SDS011;37879;52.986;6.282;2023-12-29T04:15:34;15.65;;;3.50;;
51824;SDS011;37879;52.986;6.282;2023-12-29T04:18:00;12.55;;;3.58;;
51824;SDS011;37879;52.986;6.282;2023-12-29T04:20:26;11.52;;;2.42;;
51824;SDS011;37879;52.986;6.282;2023-12-29T04:22:52;16.48;;;3.13;;
51824;SDS011;37879;52.986;6.282;2023-12-29T04:25:18;11.43;;;3.70;;
51824;SDS011;37879;52.986;6.282;2023-12-29T04:27:44;11.85;;;2.92;;
51824;SDS011;37879;52.986;6.282;2023-12-29T04:30:09;11.20;;;2.83;;
51824;SDS011;37879;52.986;6.282;2023-12-29T04:32:35;21.90;;;4.90;;
51824;SDS011;37879;52.986;6.282;2023-12-29T04:35:01;14.05;;;3.22;;
51824;SDS011;37879;52.986;6.282;2023-12-29T04:37:27;17.13;;;3.67;;
51824;SDS011;37879;52.986;6.282;2023-12-29T04:39:52;13.32;;;3.15;;
51824;SDS011;37879;52.986;6.282;2023-12-29T04:42:18;14.30;;;4.22;;
51824;SDS011;37879;52.986;6.282;2023-12-29T04:44:44;18.35;;;4.25;;
51824;SDS011;37879;52.986;6.282;2023-12-29T04:47:09;9.73;;;2.97;;
51824;SDS011;37879;52.986;6.282;2023-12-29T04:49:35;15.88;;;3.97;;
51824;SDS011;37879;52.986;6.282;2023-12-29T04:52:01;15.30;;;3.55;;
51824;SDS011;37879;52.986;6.282;2023-12-29T04:54:27;11.45;;;3.38;;
51824;SDS011;37879;52.986;6.282;2023-12-29T04:56:53;14.43;;;3.10;;
51824;SDS011;37879;52.986;6.282;2023-12-29T04:59:18;17.42;;;4.15;;
51824;SDS011;37879;52.986;6.282;2023-12-29T05:01:44;17.20;;;4.28;;
51824;SDS011;37879;52.986;6.282;2023-12-29T05:04:10;13.68;;;3.05;;
51824;SDS011;37879;52.986;6.282;2023-12-29T05:06:36;13.95;;;3.40;;
51824;SDS011;37879;52.986;6.282;2023-12-29T05:09:01;14.35;;;3.78;;
51824;SDS011;37879;52.986;6.282;2023-12-29T05:11:27;10.02;;;2.15;;
51824;SDS011;37879;52.986;6.282;2023-12-29T05:13:53;12.10;;;3.40;;
51824;SDS011;37879;52.986;6.282;2023-12-29T05:16:19;12.55;;;2.90;;
51824;SDS011;37879;52.986;6.282;2023-12-29T05:18:45;27.92;;;4.47;;
51824;SDS011;37879;52.986;6.282;2023-12-29T05:21:17;18.75;;;3.95;;
51824;SDS011;37879;52.986;6.282;2023-12-29T05:23:43;15.25;;;3.65;;
51824;SDS011;37879;52.986;6.282;2023-12-29T05:26:13;19.10;;;4.03;;
51824;SDS011;37879;52.986;6.282;2023-12-29T05:28:40;10.80;;;2.50;;
51824;SDS011;37879;52.986;6.282;2023-12-29T05:31:06;15.15;;;3.00;;
51824;SDS011;37879;52.986;6.282;2023-12-29T05:33:32;12.65;;;3.90;;
51824;SDS011;37879;52.986;6.282;2023-12-29T05:35:58;11.90;;;2.70;;
51824;SDS011;37879;52.986;6.282;2023-12-29T05:38:30;15.52;;;2.67;;
51824;SDS011;37879;52.986;6.282;2023-12-29T05:40:56;13.10;;;3.88;;
51824;SDS011;37879;52.986;6.282;2023-12-29T05:43:22;10.90;;;2.53;;
51824;SDS011;37879;52.986;6.282;2023-12-29T05:45:47;16.10;;;3.05;;
51824;SDS011;37879;52.986;6.282;2023-12-29T05:48:13;10.43;;;2.70;;
51824;SDS011;37879;52.986;6.282;2023-12-29T05:50:39;10.25;;;3.13;;
51824;SDS011;37879;52.986;6.282;2023-12-29T05:53:05;6.80;;;2.40;;
51824;SDS011;37879;52.986;6.282;2023-12-29T05:55:31;12.07;;;2.50;;
51824;SDS011;37879;52.986;6.282;2023-12-29T05:57:56;13.25;;;2.60;;
51824;SDS011;37879;52.986;6.282;2023-12-29T06:00:22;10.32;;;2.70;;
51824;SDS011;37879;52.986;6.282;2023-12-29T06:02:48;15.75;;;2.92;;
51824;SDS011;37879;52.986;6.282;2023-12-29T06:05:14;11.48;;;2.47;;
51824;SDS011;37879;52.986;6.282;2023-12-29T06:07:40;11.45;;;1.92;;
51824;SDS011;37879;52.986;6.282;2023-12-29T06:10:06;14.75;;;3.42;;
51824;SDS011;37879;52.986;6.282;2023-12-29T06:12:34;8.27;;;1.63;;
51824;SDS011;37879;52.986;6.282;2023-12-29T06:15:00;11.20;;;2.33;;
51824;SDS011;37879;52.986;6.282;2023-12-29T06:17:26;11.40;;;2.17;;
51824;SDS011;37879;52.986;6.282;2023-12-29T06:19:51;13.73;;;2.33;;
51824;SDS011;37879;52.986;6.282;2023-12-29T06:22:18;11.30;;;2.55;;
51824;SDS011;37879;52.986;6.282;2023-12-29T06:24:43;6.70;;;2.70;;
51824;SDS011;37879;52.986;6.282;2023-12-29T06:27:10;7.35;;;2.50;;
51824;SDS011;37879;52.986;6.282;2023-12-29T06:29:36;14.35;;;2.63;;
51824;SDS011;37879;52.986;6.282;2023-12-29T06:32:02;22.75;;;4.38;;
51824;SDS011;37879;52.986;6.282;2023-12-29T06:34:29;13.35;;;3.05;;
51824;SDS011;37879;52.986;6.282;2023-12-29T06:36:55;13.05;;;2.90;;
51824;SDS011;37879;52.986;6.282;2023-12-29T06:39:21;9.75;;;2.35;;
51824;SDS011;37879;52.986;6.282;2023-12-29T06:41:47;10.48;;;2.80;;
51824;SDS011;37879;52.986;6.282;2023-12-29T06:44:13;9.55;;;2.42;;
51824;SDS011;37879;52.986;6.282;2023-12-29T06:46:39;19.85;;;3.72;;
51824;SDS011;37879;52.986;6.282;2023-12-29T06:49:08;13.02;;;2.65;;
51824;SDS011;37879;52.986;6.282;2023-12-29T06:51:34;27.23;;;4.80;;
51824;SDS011;37879;52.986;6.282;2023-12-29T06:54:01;12.27;;;2.60;;
51824;SDS011;37879;52.986;6.282;2023-12-29T06:56:27;12.75;;;2.47;;
51824;SDS011;37879;52.986;6.282;2023-12-29T06:58:52;13.80;;;2.67;;
51824;SDS011;37879;52.986;6.282;2023-12-29T07:01:18;10.60;;;3.10;;
51824;SDS011;37879;52.986;6.282;2023-12-29T07:03:44;14.77;;;3.05;;
51824;SDS011;37879;52.986;6.282;2023-12-29T07:06:10;13.25;;;2.28;;
51824;SDS011;37879;52.986;6.282;2023-12-29T07:08:36;15.32;;;2.90;;
51824;SDS011;37879;52.986;6.282;2023-12-29T07:11:02;17.42;;;3.20;;
51824;SDS011;37879;52.986;6.282;2023-12-29T07:13:27;14.57;;;3.08;;
51824;SDS011;37879;52.986;6.282;2023-12-29T07:15:53;9.52;;;3.67;;
51824;SDS011;37879;52.986;6.282;2023-12-29T07:18:20;12.68;;;2.95;;
51824;SDS011;37879;52.986;6.282;2023-12-29T07:20:45;14.50;;;2.72;;
51824;SDS011;37879;52.986;6.282;2023-12-29T07:23:11;11.68;;;3.40;;
51824;SDS011;37879;52.986;6.282;2023-12-29T07:25:37;14.90;;;2.72;;
51824;SDS011;37879;52.986;6.282;2023-12-29T07:28:03;10.55;;;2.65;;
51824;SDS011;37879;52.986;6.282;2023-12-29T07:30:28;11.73;;;2.67;;
51824;SDS011;37879;52.986;6.282;2023-12-29T07:32:54;15.55;;;3.17;;
51824;SDS011;37879;52.986;6.282;2023-12-29T07:35:20;18.23;;;3.85;;
51824;SDS011;37879;52.986;6.282;2023-12-29T07:37:46;16.13;;;3.38;;
51824;SDS011;37879;52.986;6.282;2023-12-29T07:40:12;8.55;;;3.50;;
51824;SDS011;37879;52.986;6.282;2023-12-29T07:42:41;11.57;;;3.05;;
51824;SDS011;37879;52.986;6.282;2023-12-29T07:45:09;12.95;;;2.65;;
51824;SDS011;37879;52.986;6.282;2023-12-29T07:47:35;15.80;;;4.13;;
51824;SDS011;37879;52.986;6.282;2023-12-29T07:50:01;19.58;;;3.60;;
51824;SDS011;37879;52.986;6.282;2023-12-29T07:52:28;14.60;;;3.75;;
51824;SDS011;37879;52.986;6.282;2023-12-29T07:54:54;17.67;;;4.07;;
51824;SDS011;37879;52.986;6.282;2023-12-29T07:57:20;9.30;;;3.17;;
51824;SDS011;37879;52.986;6.282;2023-12-29T07:59:46;10.00;;;3.05;;
51824;SDS011;37879;52.986;6.282;2023-12-29T08:02:12;12.90;;;2.78;;
51824;SDS011;37879;52.986;6.282;2023-12-29T08:04:37;19.67;;;4.45;;
51824;SDS011;37879;52.986;6.282;2023-12-29T08:07:04;11.02;;;2.67;;
51824;SDS011;37879;52.986;6.282;2023-12-29T08:09:30;9.57;;;2.67;;
51824;SDS011;37879;52.986;6.282;2023-12-29T08:11:56;13.98;;;2.53;;
51824;SDS011;37879;52.986;6.282;2023-12-29T08:14:21;17.92;;;3.53;;
51824;SDS011;37879;52.986;6.282;2023-12-29T08:16:47;24.63;;;5.05;;
51824;SDS011;37879;52.986;6.282;2023-12-29T08:19:13;21.67;;;3.38;;
51824;SDS011;37879;52.986;6.282;2023-12-29T08:21:40;18.98;;;4.57;;
51824;SDS011;37879;52.986;6.282;2023-12-29T08:24:06;12.70;;;3.17;;
51824;SDS011;37879;52.986;6.282;2023-12-29T08:26:32;12.63;;;3.03;;
51824;SDS011;37879;52.986;6.282;2023-12-29T08:28:57;13.75;;;3.30;;
51824;SDS011;37879;52.986;6.282;2023-12-29T08:31:23;17.95;;;4.22;;
51824;SDS011;37879;52.986;6.282;2023-12-29T08:33:51;12.75;;;2.83;;
51824;SDS011;37879;52.986;6.282;2023-12-29T08:36:20;11.27;;;3.00;;
51824;SDS011;37879;52.986;6.282;2023-12-29T08:38:46;13.82;;;3.17;;
51824;SDS011;37879;52.986;6.282;2023-12-29T08:41:15;17.98;;;4.35;;
51824;SDS011;37879;52.986;6.282;2023-12-29T08:43:40;14.50;;;3.65;;
51824;SDS011;37879;52.986;6.282;2023-12-29T08:46:06;15.55;;;3.95;;
51824;SDS011;37879;52.986;6.282;2023-12-29T08:48:32;14.30;;;3.67;;
51824;SDS011;37879;52.986;6.282;2023-12-29T08:50:59;13.93;;;3.40;;
51824;SDS011;37879;52.986;6.282;2023-12-29T08:53:24;22.63;;;5.25;;
51824;SDS011;37879;52.986;6.282;2023-12-29T08:55:50;13.13;;;2.78;;
51824;SDS011;37879;52.986;6.282;2023-12-29T08:58:16;20.30;;;3.20;;
51824;SDS011;37879;52.986;6.282;2023-12-29T09:00:42;16.73;;;3.38;;
51824;SDS011;37879;52.986;6.282;2023-12-29T09:03:08;8.75;;;2.28;;
51824;SDS011;37879;52.986;6.282;2023-12-29T09:05:34;10.45;;;2.83;;
51824;SDS011;37879;52.986;6.282;2023-12-29T09:08:00;15.73;;;3.00;;
51824;SDS011;37879;52.986;6.282;2023-12-29T09:10:26;15.80;;;3.45;;
51824;SDS011;37879;52.986;6.282;2023-12-29T09:12:51;14.23;;;2.78;;
51824;SDS011;37879;52.986;6.282;2023-12-29T09:15:17;13.68;;;2.80;;
51824;SDS011;37879;52.986;6.282;2023-12-29T09:17:43;12.30;;;3.30;;
51824;SDS011;37879;52.986;6.282;2023-12-29T09:20:08;11.80;;;2.70;;
51824;SDS011;37879;52.986;6.282;2023-12-29T09:22:35;17.73;;;3.65;;
51824;SDS011;37879;52.986;6.282;2023-12-29T09:25:00;14.70;;;3.28;;
51824;SDS011;37879;52.986;6.282;2023-12-29T09:27:26;11.63;;;3.25;;
51824;SDS011;37879;52.986;6.282;2023-12-29T09:29:52;12.43;;;3.08;;
51824;SDS011;37879;52.986;6.282;2023-12-29T09:32:18;17.33;;;2.63;;
51824;SDS011;37879;52.986;6.282;2023-12-29T09:34:43;12.35;;;2.97;;
51824;SDS011;37879;52.986;6.282;2023-12-29T09:37:09;11.77;;;3.05;;
51824;SDS011;37879;52.986;6.282;2023-12-29T09:39:35;15.75;;;3.38;;
51824;SDS011;37879;52.986;6.282;2023-12-29T09:42:00;13.40;;;2.92;;
51824;SDS011;37879;52.986;6.282;2023-12-29T09:44:28;14.38;;;2.75;;
51824;SDS011;37879;52.986;6.282;2023-12-29T09:46:57;15.70;;;4.07;;
51824;SDS011;37879;52.986;6.282;2023-12-29T09:49:38;11.52;;;3.20;;
51824;SDS011;37879;52.986;6.282;2023-12-29T09:52:07;12.27;;;3.47;;
51824;SDS011;37879;52.986;6.282;2023-12-29T09:54:34;9.23;;;2.55;;
51824;SDS011;37879;52.986;6.282;2023-12-29T09:57:01;12.75;;;3.42;;
51824;SDS011;37879;52.986;6.282;2023-12-29T09:59:29;12.57;;;3.70;;
51824;SDS011;37879;52.986;6.282;2023-12-29T10:01:57;12.63;;;2.80;;
51824;SDS011;37879;52.986;6.282;2023-12-29T10:04:22;10.13;;;2.83;;
51824;SDS011;37879;52.986;6.282;2023-12-29T10:06:48;18.90;;;3.92;;
51824;SDS011;37879;52.986;6.282;2023-12-29T10:09:15;19.13;;;3.85;;
51824;SDS011;37879;52.986;6.282;2023-12-29T10:11:45;15.00;;;2.92;;
51824;SDS011;37879;52.986;6.282;2023-12-29T10:14:36;10.48;;;2.33;;
51824;SDS011;37879;52.986;6.282;2023-12-29T10:22:51;10.10;;;2.40;;
51824;SDS011;37879;52.986;6.282;2023-12-29T10:25:25;9.90;;;2.65;;
51824;SDS011;37879;52.986;6.282;2023-12-29T10:27:50;15.52;;;2.53;;
51824;SDS011;37879;52.986;6.282;2023-12-29T10:30:16;7.63;;;2.15;;
51824;SDS011;37879;52.986;6.282;2023-12-29T10:32:43;9.68;;;2.28;;
51824;SDS011;37879;52.986;6.282;2023-12-29T10:35:14;13.43;;;3.10;;
51824;SDS011;37879;52.986;6.282;2023-12-29T10:37:39;13.48;;;3.10;;
51824;SDS011;37879;52.986;6.282;2023-12-29T10:40:05;8.88;;;1.90;;
51824;SDS011;37879;52.986;6.282;2023-12-29T10:42:33;9.38;;;2.00;;
51824;SDS011;37879;52.986;6.282;2023-12-29T10:45:08;9.93;;;2.10;;
51824;SDS011;37879;52.986;6.282;2023-12-29T10:47:35;9.02;;;2.10;;
51824;SDS011;37879;52.986;6.282;2023-12-29T10:50:02;11.63;;;2.55;;
51824;SDS011;37879;52.986;6.282;2023-12-29T10:52:31;10.00;;;2.05;;
51824;SDS011;37879;52.986;6.282;2023-12-29T10:55:05;9.80;;;2.78;;
51824;SDS011;37879;52.986;6.282;2023-12-29T10:57:32;5.72;;;2.00;;
51824;SDS011;37879;52.986;6.282;2023-12-29T10:59:57;5.80;;;1.58;;
51824;SDS011;37879;52.986;6.282;2023-12-29T11:02:25;13.13;;;1.90;;
51824;SDS011;37879;52.986;6.282;2023-12-29T11:04:52;11.25;;;2.28;;
51824;SDS011;37879;52.986;6.282;2023-12-29T11:07:36;13.00;;;2.53;;
51824;SDS011;37879;52.986;6.282;2023-12-29T11:10:02;13.48;;;2.17;;
51824;SDS011;37879;52.986;6.282;2023-12-29T11:12:30;12.35;;;1.75;;
51824;SDS011;37879;52.986;6.282;2023-12-29T11:14:57;8.95;;;2.10;;
51824;SDS011;37879;52.986;6.282;2023-12-29T11:17:24;11.07;;;1.90;;
51824;SDS011;37879;52.986;6.282;2023-12-29T11:19:52;6.95;;;2.00;;
51824;SDS011;37879;52.986;6.282;2023-12-29T11:22:18;6.60;;;1.40;;
51824;SDS011;37879;52.986;6.282;2023-12-29T11:24:46;9.32;;;2.28;;
51824;SDS011;37879;52.986;6.282;2023-12-29T11:27:13;8.25;;;1.80;;
51824;SDS011;37879;52.986;6.282;2023-12-29T11:29:39;7.28;;;1.00;;
51824;SDS011;37879;52.986;6.282;2023-12-29T11:32:06;4.97;;;1.30;;
51824;SDS011;37879;52.986;6.282;2023-12-29T11:34:42;12.23;;;2.55;;
51824;SDS011;37879;52.986;6.282;2023-12-29T11:40:30;6.38;;;1.13;;
51824;SDS011;37879;52.986;6.282;2023-12-29T11:43:07;6.40;;;1.25;;
51824;SDS011;37879;52.986;6.282;2023-12-29T11:45:38;7.22;;;1.58;;
51824;SDS011;37879;52.986;6.282;2023-12-29T11:48:04;11.15;;;1.73;;
51824;SDS011;37879;52.986;6.282;2023-12-29T11:50:36;8.65;;;2.67;;
51824;SDS011;37879;52.986;6.282;2023-12-29T11:53:04;7.65;;;1.58;;
51824;SDS011;37879;52.986;6.282;2023-12-29T11:55:34;9.57;;;1.65;;
51824;SDS011;37879;52.986;6.282;2023-12-29T11:58:01;9.05;;;1.77;;
51824;SDS011;37879;52.986;6.282;2023-12-29T12:00:45;12.20;;;1.88;;
51824;SDS011;37879;52.986;6.282;2023-12-29T12:03:22;8.23;;;2.20;;
51824;SDS011;37879;52.986;6.282;2023-12-29T12:05:49;7.05;;;1.67;;
51824;SDS011;37879;52.986;6.282;2023-12-29T12:08:26;5.30;;;1.50;;
51824;SDS011;37879;52.986;6.282;2023-12-29T12:10:56;8.18;;;1.95;;
51824;SDS011;37879;52.986;6.282;2023-12-29T12:16:46;7.07;;;1.63;;
51824;SDS011;37879;52.986;6.282;2023-12-29T12:19:09;10.55;;;2.10;;
51824;SDS011;37879;52.986;6.282;2023-12-29T12:21:36;7.57;;;1.60;;
51824;SDS011;37879;52.986;6.282;2023-12-29T12:24:06;6.95;;;1.55;;
51824;SDS011;37879;52.986;6.282;2023-12-29T12:26:33;10.70;;;2.33;;
51824;SDS011;37879;52.986;6.282;2023-12-29T12:29:02;8.43;;;2.03;;
51824;SDS011;37879;52.986;6.282;2023-12-29T12:31:29;9.73;;;2.63;;
51824;SDS011;37879;52.986;6.282;2023-12-29T12:33:58;8.57;;;2.10;;
51824;SDS011;37879;52.986;6.282;2023-12-29T12:36:27;9.88;;;1.80;;
51824;SDS011;37879;52.986;6.282;2023-12-29T12:38:54;8.07;;;1.83;;
51824;SDS011;37879;52.986;6.282;2023-12-29T12:41:24;7.47;;;2.08;;
51824;SDS011;37879;52.986;6.282;2023-12-29T12:46:35;10.18;;;2.00;;
51824;SDS011;37879;52.986;6.282;2023-12-29T12:49:16;8.07;;;1.52;;
51824;SDS011;37879;52.986;6.282;2023-12-29T12:51:43;9.75;;;1.85;;
51824;SDS011;37879;52.986;6.282;2023-12-29T12:54:09;6.60;;;1.85;;
51824;SDS011;37879;52.986;6.282;2023-12-29T12:56:36;9.35;;;1.85;;
51824;SDS011;37879;52.986;6.282;2023-12-29T12:59:02;11.82;;;3.13;;
51824;SDS011;37879;52.986;6.282;2023-12-29T13:01:29;9.65;;;2.42;;
51824;SDS011;37879;52.986;6.282;2023-12-29T13:03:59;10.68;;;2.30;;
51824;SDS011;37879;52.986;6.282;2023-12-29T13:06:25;9.65;;;2.25;;
51824;SDS011;37879;52.986;6.282;2023-12-29T13:08:51;12.05;;;2.15;;
51824;SDS011;37879;52.986;6.282;2023-12-29T13:11:21;7.57;;;1.35;;
51824;SDS011;37879;52.986;6.282;2023-12-29T13:13:49;6.65;;;1.80;;
51824;SDS011;37879;52.986;6.282;2023-12-29T13:16:15;10.38;;;2.55;;
51824;SDS011;37879;52.986;6.282;2023-12-29T13:18:40;4.68;;;1.20;;
51824;SDS011;37879;52.986;6.282;2023-12-29T13:21:06;13.63;;;2.92;;
51824;SDS011;37879;52.986;6.282;2023-12-29T13:23:34;9.50;;;1.75;;
51824;SDS011;37879;52.986;6.282;2023-12-29T13:26:07;5.25;;;1.30;;
51824;SDS011;37879;52.986;6.282;2023-12-29T13:28:34;7.45;;;1.50;;
51824;SDS011;37879;52.986;6.282;2023-12-29T13:31:01;5.30;;;1.52;;
51824;SDS011;37879;52.986;6.282;2023-12-29T13:36:11;7.50;;;2.58;;
51824;SDS011;37879;52.986;6.282;2023-12-29T13:38:59;9.70;;;1.77;;
51824;SDS011;37879;52.986;6.282;2023-12-29T13:41:34;7.45;;;1.45;;
51824;SDS011;37879;52.986;6.282;2023-12-29T13:44:02;8.55;;;2.00;;
51824;SDS011;37879;52.986;6.282;2023-12-29T13:46:28;3.53;;;1.25;;
51824;SDS011;37879;52.986;6.282;2023-12-29T13:48:54;3.20;;;1.42;;
51824;SDS011;37879;52.986;6.282;2023-12-29T13:51:24;8.50;;;1.35;;
51824;SDS011;37879;52.986;6.282;2023-12-29T13:53:57;9.07;;;2.90;;
51824;SDS011;37879;52.986;6.282;2023-12-29T13:56:27;8.15;;;1.48;;
51824;SDS011;37879;52.986;6.282;2023-12-29T13:58:53;8.85;;;1.80;;
51824;SDS011;37879;52.986;6.282;2023-12-29T14:01:19;10.25;;;2.60;;
51824;SDS011;37879;52.986;6.282;2023-12-29T14:03:54;5.70;;;1.80;;
51824;SDS011;37879;52.986;6.282;2023-12-29T14:06:32;7.03;;;2.30;;
51824;SDS011;37879;52.986;6.282;2023-12-29T14:09:01;9.73;;;1.75;;
51824;SDS011;37879;52.986;6.282;2023-12-29T14:11:29;8.85;;;2.03;;
51824;SDS011;37879;52.986;6.282;2023-12-29T14:13:56;9.93;;;1.70;;
51824;SDS011;37879;52.986;6.282;2023-12-29T14:16:22;10.80;;;2.08;;
51824;SDS011;37879;52.986;6.282;2023-12-29T14:18:55;6.53;;;1.88;;
51824;SDS011;37879;52.986;6.282;2023-12-29T14:21:29;7.82;;;1.38;;
51824;SDS011;37879;52.986;6.282;2023-12-29T14:24:05;11.57;;;1.80;;
51824;SDS011;37879;52.986;6.282;2023-12-29T14:26:31;4.97;;;1.13;;
51824;SDS011;37879;52.986;6.282;2023-12-29T14:29:03;7.30;;;1.30;;
51824;SDS011;37879;52.986;6.282;2023-12-29T14:31:37;7.30;;;1.85;;
51824;SDS011;37879;52.986;6.282;2023-12-29T14:34:06;6.00;;;1.67;;
51824;SDS011;37879;52.986;6.282;2023-12-29T14:36:33;10.73;;;1.95;;
51824;SDS011;37879;52.986;6.282;2023-12-29T14:39:00;8.32;;;1.30;;
51824;SDS011;37879;52.986;6.282;2023-12-29T14:41:26;6.13;;;1.83;;
51824;SDS011;37879;52.986;6.282;2023-12-29T14:43:52;7.55;;;1.38;;
51824;SDS011;37879;52.986;6.282;2023-12-29T14:46:19;11.05;;;2.42;;
51824;SDS011;37879;52.986;6.282;2023-12-29T14:48:44;10.45;;;2.17;;
51824;SDS011;37879;52.986;6.282;2023-12-29T14:51:10;9.07;;;1.75;;
51824;SDS011;37879;52.986;6.282;2023-12-29T14:53:36;7.80;;;1.50;;
51824;SDS011;37879;52.986;6.282;2023-12-29T14:56:03;9.65;;;2.30;;
51824;SDS011;37879;52.986;6.282;2023-12-29T14:58:29;6.03;;;1.65;;
51824;SDS011;37879;52.986;6.282;2023-12-29T15:00:57;10.25;;;2.53;;